Terminal Aerodrome Forecast
Issued by NWS Wakefield, VA

Home | Current Version | Previous Version | Text Only | Print | Product List | Glossary On
Versions: 1 2 3 4 5 6 7 8 9 10 11 12 13 14 15 16
000
FTUS41 KAKQ 210500
TAFORF
TAF
KORF 210539Z 2106/2206 22006KT P6SM SCT060 BKN120
     FM211500 25007KT P6SM SCT100 BKN250
     FM212000 27005KT P6SM SCT100
     FM220200 32005KT P6SM BKN080=

USA.gov is the U.S. government's official web portal to all federal, state and local government web resources and services.